sensor_id;sensor_type;location;lat;lon;timestamp;P1;durP1;ratioP1;P2;durP2;ratioP2
14377;SDS011;7272;53.668;9.578;2023-05-07T00:00:21;11.03;;;10.17;;
14377;SDS011;7272;53.668;9.578;2023-05-07T00:03:23;10.77;;;9.87;;
14377;SDS011;7272;53.668;9.578;2023-05-07T00:06:25;11.87;;;10.87;;
14377;SDS011;7272;53.668;9.578;2023-05-07T00:09:29;12.07;;;10.97;;
14377;SDS011;7272;53.668;9.578;2023-05-07T00:12:30;12.17;;;11.17;;
14377;SDS011;7272;53.668;9.578;2023-05-07T00:15:31;13.43;;;12.43;;
14377;SDS011;7272;53.668;9.578;2023-05-07T00:18:32;13.57;;;12.57;;
14377;SDS011;7272;53.668;9.578;2023-05-07T00:21:35;11.37;;;10.37;;
14377;SDS011;7272;53.668;9.578;2023-05-07T00:24:36;10.90;;;10.00;;
14377;SDS011;7272;53.668;9.578;2023-05-07T00:27:37;11.60;;;10.50;;
14377;SDS011;7272;53.668;9.578;2023-05-07T00:30:38;12.40;;;11.40;;
14377;SDS011;7272;53.668;9.578;2023-05-07T00:33:40;11.97;;;11.00;;
14377;SDS011;7272;53.668;9.578;2023-05-07T00:36:42;13.63;;;12.53;;
14377;SDS011;7272;53.668;9.578;2023-05-07T00:39:43;12.57;;;11.57;;
14377;SDS011;7272;53.668;9.578;2023-05-07T00:42:44;13.67;;;12.53;;
14377;SDS011;7272;53.668;9.578;2023-05-07T00:45:47;13.47;;;12.27;;
14377;SDS011;7272;53.668;9.578;2023-05-07T00:48:48;13.67;;;12.57;;
14377;SDS011;7272;53.668;9.578;2023-05-07T00:51:51;13.90;;;12.70;;
14377;SDS011;7272;53.668;9.578;2023-05-07T00:54:53;16.20;;;14.98;;
14377;SDS011;7272;53.668;9.578;2023-05-07T00:57:55;14.05;;;12.85;;
14377;SDS011;7272;53.668;9.578;2023-05-07T01:00:56;13.90;;;12.70;;
14377;SDS011;7272;53.668;9.578;2023-05-07T01:03:58;13.13;;;11.93;;
14377;SDS011;7272;53.668;9.578;2023-05-07T01:07:00;11.80;;;10.80;;
14377;SDS011;7272;53.668;9.578;2023-05-07T01:10:02;12.90;;;11.70;;
14377;SDS011;7272;53.668;9.578;2023-05-07T01:13:05;12.27;;;11.17;;
14377;SDS011;7272;53.668;9.578;2023-05-07T01:16:06;11.67;;;10.67;;
14377;SDS011;7272;53.668;9.578;2023-05-07T01:19:09;11.93;;;10.83;;
14377;SDS011;7272;53.668;9.578;2023-05-07T01:22:15;10.73;;;9.80;;
14377;SDS011;7272;53.668;9.578;2023-05-07T01:25:24;10.23;;;9.33;;
14377;SDS011;7272;53.668;9.578;2023-05-07T01:28:29;9.80;;;8.90;;
14377;SDS011;7272;53.668;9.578;2023-05-07T01:31:33;9.67;;;8.70;;
14377;SDS011;7272;53.668;9.578;2023-05-07T01:34:36;9.97;;;9.07;;
14377;SDS011;7272;53.668;9.578;2023-05-07T01:37:38;9.27;;;8.47;;
14377;SDS011;7272;53.668;9.578;2023-05-07T01:40:41;10.20;;;9.40;;
14377;SDS011;7272;53.668;9.578;2023-05-07T01:43:43;8.20;;;7.50;;
14377;SDS011;7272;53.668;9.578;2023-05-07T01:46:45;8.63;;;7.93;;
14377;SDS011;7272;53.668;9.578;2023-05-07T01:49:48;8.00;;;7.30;;
14377;SDS011;7272;53.668;9.578;2023-05-07T01:52:50;8.77;;;8.07;;
14377;SDS011;7272;53.668;9.578;2023-05-07T01:55:52;8.30;;;7.60;;
14377;SDS011;7272;53.668;9.578;2023-05-07T01:58:55;8.87;;;8.17;;
14377;SDS011;7272;53.668;9.578;2023-05-07T02:01:56;9.83;;;8.97;;
14377;SDS011;7272;53.668;9.578;2023-05-07T02:04:58;10.10;;;9.20;;
14377;SDS011;7272;53.668;9.578;2023-05-07T02:08:00;9.90;;;9.00;;
14377;SDS011;7272;53.668;9.578;2023-05-07T02:11:03;9.57;;;8.80;;
14377;SDS011;7272;53.668;9.578;2023-05-07T02:14:05;9.83;;;9.03;;
14377;SDS011;7272;53.668;9.578;2023-05-07T02:17:07;10.70;;;9.90;;
14377;SDS011;7272;53.668;9.578;2023-05-07T02:20:09;8.27;;;7.67;;
14377;SDS011;7272;53.668;9.578;2023-05-07T02:23:14;8.77;;;8.07;;
14377;SDS011;7272;53.668;9.578;2023-05-07T02:26:16;8.80;;;8.03;;
14377;SDS011;7272;53.668;9.578;2023-05-07T02:29:18;7.47;;;6.87;;
14377;SDS011;7272;53.668;9.578;2023-05-07T02:32:19;8.67;;;7.97;;
14377;SDS011;7272;53.668;9.578;2023-05-07T02:35:21;8.67;;;7.97;;
14377;SDS011;7272;53.668;9.578;2023-05-07T02:38:22;7.87;;;7.27;;
14377;SDS011;7272;53.668;9.578;2023-05-07T02:41:24;7.70;;;7.10;;
14377;SDS011;7272;53.668;9.578;2023-05-07T02:44:25;7.57;;;6.97;;
14377;SDS011;7272;53.668;9.578;2023-05-07T02:47:26;8.20;;;7.47;;
14377;SDS011;7272;53.668;9.578;2023-05-07T02:50:29;7.47;;;6.93;;
14377;SDS011;7272;53.668;9.578;2023-05-07T02:53:30;7.80;;;7.20;;
14377;SDS011;7272;53.668;9.578;2023-05-07T02:56:32;7.87;;;7.27;;
14377;SDS011;7272;53.668;9.578;2023-05-07T02:59:33;8.88;;;8.27;;
14377;SDS011;7272;53.668;9.578;2023-05-07T03:02:35;9.60;;;8.80;;
14377;SDS011;7272;53.668;9.578;2023-05-07T03:05:36;7.53;;;6.83;;
14377;SDS011;7272;53.668;9.578;2023-05-07T03:08:37;7.07;;;6.57;;
14377;SDS011;7272;53.668;9.578;2023-05-07T03:11:39;7.10;;;6.50;;
14377;SDS011;7272;53.668;9.578;2023-05-07T03:14:41;8.57;;;7.87;;
14377;SDS011;7272;53.668;9.578;2023-05-07T03:17:42;8.63;;;7.83;;
14377;SDS011;7272;53.668;9.578;2023-05-07T03:20:43;9.10;;;8.40;;
14377;SDS011;7272;53.668;9.578;2023-05-07T03:23:44;8.23;;;7.63;;
14377;SDS011;7272;53.668;9.578;2023-05-07T03:26:46;9.07;;;8.37;;
14377;SDS011;7272;53.668;9.578;2023-05-07T03:29:48;9.20;;;8.50;;
14377;SDS011;7272;53.668;9.578;2023-05-07T03:32:50;8.47;;;7.77;;
14377;SDS011;7272;53.668;9.578;2023-05-07T03:35:51;7.87;;;7.27;;
14377;SDS011;7272;53.668;9.578;2023-05-07T03:38:57;7.90;;;7.20;;
14377;SDS011;7272;53.668;9.578;2023-05-07T03:42:02;10.75;;;9.95;;
14377;SDS011;7272;53.668;9.578;2023-05-07T03:45:06;9.93;;;9.13;;
14377;SDS011;7272;53.668;9.578;2023-05-07T03:48:08;9.93;;;9.03;;
14377;SDS011;7272;53.668;9.578;2023-05-07T03:51:10;9.63;;;8.90;;
14377;SDS011;7272;53.668;9.578;2023-05-07T03:54:11;9.80;;;8.90;;
14377;SDS011;7272;53.668;9.578;2023-05-07T03:57:17;10.00;;;9.20;;
14377;SDS011;7272;53.668;9.578;2023-05-07T04:00:19;10.73;;;9.73;;
14377;SDS011;7272;53.668;9.578;2023-05-07T04:03:21;9.80;;;9.00;;
14377;SDS011;7272;53.668;9.578;2023-05-07T04:06:23;10.63;;;9.67;;
14377;SDS011;7272;53.668;9.578;2023-05-07T04:09:25;10.23;;;9.37;;
14377;SDS011;7272;53.668;9.578;2023-05-07T04:12:28;10.43;;;9.43;;
14377;SDS011;7272;53.668;9.578;2023-05-07T04:15:30;10.17;;;9.17;;
14377;SDS011;7272;53.668;9.578;2023-05-07T04:18:31;10.17;;;9.10;;
14377;SDS011;7272;53.668;9.578;2023-05-07T04:21:33;11.40;;;9.57;;
14377;SDS011;7272;53.668;9.578;2023-05-07T04:24:35;12.98;;;11.98;;
14377;SDS011;7272;53.668;9.578;2023-05-07T04:27:40;12.60;;;11.57;;
14377;SDS011;7272;53.668;9.578;2023-05-07T04:30:42;10.63;;;9.73;;
14377;SDS011;7272;53.668;9.578;2023-05-07T04:33:45;11.57;;;10.63;;
14377;SDS011;7272;53.668;9.578;2023-05-07T04:36:48;11.97;;;10.97;;
14377;SDS011;7272;53.668;9.578;2023-05-07T04:39:49;11.97;;;10.97;;
14377;SDS011;7272;53.668;9.578;2023-05-07T04:42:52;11.17;;;10.17;;
14377;SDS011;7272;53.668;9.578;2023-05-07T04:45:53;11.30;;;10.33;;
14377;SDS011;7272;53.668;9.578;2023-05-07T04:48:58;11.67;;;10.67;;
14377;SDS011;7272;53.668;9.578;2023-05-07T04:52:00;10.60;;;9.70;;
14377;SDS011;7272;53.668;9.578;2023-05-07T04:55:01;10.00;;;9.10;;
14377;SDS011;7272;53.668;9.578;2023-05-07T04:58:16;9.67;;;8.87;;
14377;SDS011;7272;53.668;9.578;2023-05-07T05:01:20;8.67;;;8.07;;
14377;SDS011;7272;53.668;9.578;2023-05-07T05:04:22;9.67;;;8.87;;
14377;SDS011;7272;53.668;9.578;2023-05-07T05:07:24;10.77;;;9.97;;
14377;SDS011;7272;53.668;9.578;2023-05-07T05:10:26;9.90;;;9.00;;
14377;SDS011;7272;53.668;9.578;2023-05-07T05:13:35;9.50;;;8.80;;
14377;SDS011;7272;53.668;9.578;2023-05-07T05:16:44;10.27;;;9.30;;
14377;SDS011;7272;53.668;9.578;2023-05-07T05:19:46;9.60;;;8.80;;
14377;SDS011;7272;53.668;9.578;2023-05-07T05:22:48;9.43;;;8.63;;
14377;SDS011;7272;53.668;9.578;2023-05-07T05:25:50;9.63;;;8.83;;
14377;SDS011;7272;53.668;9.578;2023-05-07T05:28:57;9.50;;;8.80;;
14377;SDS011;7272;53.668;9.578;2023-05-07T05:32:03;9.83;;;8.93;;
14377;SDS011;7272;53.668;9.578;2023-05-07T05:35:05;9.07;;;8.37;;
14377;SDS011;7272;53.668;9.578;2023-05-07T05:38:07;9.27;;;8.47;;
14377;SDS011;7272;53.668;9.578;2023-05-07T05:41:09;9.17;;;8.37;;
14377;SDS011;7272;53.668;9.578;2023-05-07T05:44:11;9.67;;;8.87;;
14377;SDS011;7272;53.668;9.578;2023-05-07T05:47:14;9.40;;;8.60;;
14377;SDS011;7272;53.668;9.578;2023-05-07T05:50:16;10.35;;;9.45;;
14377;SDS011;7272;53.668;9.578;2023-05-07T05:53:18;9.10;;;8.33;;
14377;SDS011;7272;53.668;9.578;2023-05-07T05:56:22;9.57;;;8.67;;
14377;SDS011;7272;53.668;9.578;2023-05-07T05:59:25;8.87;;;8.07;;
14377;SDS011;7272;53.668;9.578;2023-05-07T06:02:27;9.37;;;8.50;;
14377;SDS011;7272;53.668;9.578;2023-05-07T06:05:29;8.70;;;8.00;;
14377;SDS011;7272;53.668;9.578;2023-05-07T06:08:31;9.10;;;8.20;;
14377;SDS011;7272;53.668;9.578;2023-05-07T06:11:35;8.67;;;7.87;;
14377;SDS011;7272;53.668;9.578;2023-05-07T06:14:37;8.43;;;7.73;;
14377;SDS011;7272;53.668;9.578;2023-05-07T06:17:42;8.53;;;7.83;;
14377;SDS011;7272;53.668;9.578;2023-05-07T06:20:46;8.47;;;7.77;;
14377;SDS011;7272;53.668;9.578;2023-05-07T06:23:56;8.60;;;7.90;;
14377;SDS011;7272;53.668;9.578;2023-05-07T06:26:58;8.87;;;8.07;;
14377;SDS011;7272;53.668;9.578;2023-05-07T06:30:01;8.83;;;8.03;;
14377;SDS011;7272;53.668;9.578;2023-05-07T06:33:03;9.98;;;9.18;;
14377;SDS011;7272;53.668;9.578;2023-05-07T06:36:05;9.98;;;9.18;;
14377;SDS011;7272;53.668;9.578;2023-05-07T06:39:08;8.17;;;7.57;;
14377;SDS011;7272;53.668;9.578;2023-05-07T06:42:11;8.43;;;7.73;;
14377;SDS011;7272;53.668;9.578;2023-05-07T06:45:17;7.93;;;7.33;;
14377;SDS011;7272;53.668;9.578;2023-05-07T06:48:18;7.53;;;6.93;;
14377;SDS011;7272;53.668;9.578;2023-05-07T06:51:32;8.07;;;7.37;;
14377;SDS011;7272;53.668;9.578;2023-05-07T06:54:37;7.50;;;6.90;;
14377;SDS011;7272;53.668;9.578;2023-05-07T06:57:41;8.47;;;7.77;;
14377;SDS011;7272;53.668;9.578;2023-05-07T07:00:43;7.90;;;7.30;;
14377;SDS011;7272;53.668;9.578;2023-05-07T07:03:46;8.83;;;8.13;;
14377;SDS011;7272;53.668;9.578;2023-05-07T07:06:48;7.67;;;7.07;;
14377;SDS011;7272;53.668;9.578;2023-05-07T07:09:59;7.80;;;7.20;;
14377;SDS011;7272;53.668;9.578;2023-05-07T07:13:03;16.17;;;7.67;;
14377;SDS011;7272;53.668;9.578;2023-05-07T07:16:05;9.05;;;8.35;;
14377;SDS011;7272;53.668;9.578;2023-05-07T07:19:07;7.60;;;7.00;;
14377;SDS011;7272;53.668;9.578;2023-05-07T07:22:09;8.23;;;7.53;;
14377;SDS011;7272;53.668;9.578;2023-05-07T07:25:12;8.20;;;7.40;;
14377;SDS011;7272;53.668;9.578;2023-05-07T07:28:13;8.00;;;7.00;;
14377;SDS011;7272;53.668;9.578;2023-05-07T07:31:16;7.63;;;7.03;;
14377;SDS011;7272;53.668;9.578;2023-05-07T07:34:20;7.27;;;6.63;;
14377;SDS011;7272;53.668;9.578;2023-05-07T07:37:22;7.60;;;6.90;;
14377;SDS011;7272;53.668;9.578;2023-05-07T07:40:26;7.50;;;6.90;;
14377;SDS011;7272;53.668;9.578;2023-05-07T07:43:27;7.17;;;6.57;;
14377;SDS011;7272;53.668;9.578;2023-05-07T07:46:30;8.17;;;7.47;;
14377;SDS011;7272;53.668;9.578;2023-05-07T07:49:32;7.47;;;6.87;;
14377;SDS011;7272;53.668;9.578;2023-05-07T07:52:39;7.83;;;7.13;;
14377;SDS011;7272;53.668;9.578;2023-05-07T07:55:41;6.87;;;6.30;;
14377;SDS011;7272;53.668;9.578;2023-05-07T07:58:49;7.90;;;7.20;;
14377;SDS011;7272;53.668;9.578;2023-05-07T08:01:51;7.50;;;6.90;;
14377;SDS011;7272;53.668;9.578;2023-05-07T08:04:56;6.90;;;6.30;;
14377;SDS011;7272;53.668;9.578;2023-05-07T08:08:01;7.50;;;6.90;;
14377;SDS011;7272;53.668;9.578;2023-05-07T08:11:07;6.87;;;6.30;;
14377;SDS011;7272;53.668;9.578;2023-05-07T08:14:10;6.57;;;6.07;;
14377;SDS011;7272;53.668;9.578;2023-05-07T08:17:13;6.20;;;5.70;;
14377;SDS011;7272;53.668;9.578;2023-05-07T08:20:17;6.70;;;6.10;;
14377;SDS011;7272;53.668;9.578;2023-05-07T08:23:18;6.10;;;5.60;;
14377;SDS011;7272;53.668;9.578;2023-05-07T08:26:22;6.20;;;5.70;;
14377;SDS011;7272;53.668;9.578;2023-05-07T08:29:47;6.17;;;5.67;;
14377;SDS011;7272;53.668;9.578;2023-05-07T08:32:53;6.70;;;6.20;;
14377;SDS011;7272;53.668;9.578;2023-05-07T08:35:55;6.20;;;5.70;;
14377;SDS011;7272;53.668;9.578;2023-05-07T08:39:01;6.78;;;6.28;;
14377;SDS011;7272;53.668;9.578;2023-05-07T08:42:05;6.10;;;5.67;;
14377;SDS011;7272;53.668;9.578;2023-05-07T08:45:17;6.07;;;5.53;;
14377;SDS011;7272;53.668;9.578;2023-05-07T08:48:21;6.30;;;5.73;;
14377;SDS011;7272;53.668;9.578;2023-05-07T08:51:37;6.57;;;6.07;;
14377;SDS011;7272;53.668;9.578;2023-05-07T08:54:39;6.17;;;5.67;;
14377;SDS011;7272;53.668;9.578;2023-05-07T08:57:43;5.43;;;5.03;;
14377;SDS011;7272;53.668;9.578;2023-05-07T09:00:46;5.83;;;5.43;;
14377;SDS011;7272;53.668;9.578;2023-05-07T09:03:49;5.37;;;4.83;;
14377;SDS011;7272;53.668;9.578;2023-05-07T09:06:51;5.93;;;5.40;;
14377;SDS011;7272;53.668;9.578;2023-05-07T09:09:55;6.00;;;5.50;;
14377;SDS011;7272;53.668;9.578;2023-05-07T09:12:59;5.23;;;4.83;;
14377;SDS011;7272;53.668;9.578;2023-05-07T09:16:09;5.90;;;5.40;;
14377;SDS011;7272;53.668;9.578;2023-05-07T09:19:13;6.33;;;5.83;;
14377;SDS011;7272;53.668;9.578;2023-05-07T09:22:18;6.28;;;5.85;;
14377;SDS011;7272;53.668;9.578;2023-05-07T09:25:34;6.17;;;5.60;;
14377;SDS011;7272;53.668;9.578;2023-05-07T09:28:43;5.90;;;5.33;;
14377;SDS011;7272;53.668;9.578;2023-05-07T09:31:48;6.00;;;5.50;;
14377;SDS011;7272;53.668;9.578;2023-05-07T09:34:55;5.60;;;5.10;;
14377;SDS011;7272;53.668;9.578;2023-05-07T09:38:00;5.73;;;5.23;;
14377;SDS011;7272;53.668;9.578;2023-05-07T09:41:04;4.83;;;4.43;;
14377;SDS011;7272;53.668;9.578;2023-05-07T09:44:11;5.93;;;5.43;;
14377;SDS011;7272;53.668;9.578;2023-05-07T09:47:20;6.00;;;5.50;;
14377;SDS011;7272;53.668;9.578;2023-05-07T09:50:30;6.67;;;6.17;;
14377;SDS011;7272;53.668;9.578;2023-05-07T09:53:36;5.93;;;5.47;;
14377;SDS011;7272;53.668;9.578;2023-05-07T09:56:43;5.80;;;5.30;;
14377;SDS011;7272;53.668;9.578;2023-05-07T09:59:45;6.27;;;5.77;;
14377;SDS011;7272;53.668;9.578;2023-05-07T10:02:51;7.63;;;7.03;;
14377;SDS011;7272;53.668;9.578;2023-05-07T10:05:59;5.93;;;5.53;;
14377;SDS011;7272;53.668;9.578;2023-05-07T10:09:05;5.93;;;5.53;;
14377;SDS011;7272;53.668;9.578;2023-05-07T10:12:08;7.00;;;6.50;;
14377;SDS011;7272;53.668;9.578;2023-05-07T10:15:11;6.60;;;6.00;;
14377;SDS011;7272;53.668;9.578;2023-05-07T10:18:16;6.30;;;5.80;;
14377;SDS011;7272;53.668;9.578;2023-05-07T10:21:24;5.80;;;5.40;;
14377;SDS011;7272;53.668;9.578;2023-05-07T10:24:33;6.40;;;5.90;;
14377;SDS011;7272;53.668;9.578;2023-05-07T10:27:45;5.73;;;5.33;;
14377;SDS011;7272;53.668;9.578;2023-05-07T10:30:54;6.10;;;5.70;;
14377;SDS011;7272;53.668;9.578;2023-05-07T10:34:08;5.53;;;5.13;;
14377;SDS011;7272;53.668;9.578;2023-05-07T10:37:14;5.80;;;5.37;;
14377;SDS011;7272;53.668;9.578;2023-05-07T10:40:17;6.97;;;6.47;;
14377;SDS011;7272;53.668;9.578;2023-05-07T10:43:24;5.83;;;5.33;;
14377;SDS011;7272;53.668;9.578;2023-05-07T10:46:32;5.37;;;4.97;;
14377;SDS011;7272;53.668;9.578;2023-05-07T10:53:29;5.40;;;5.00;;
14377;SDS011;7272;53.668;9.578;2023-05-07T10:56:40;5.93;;;5.20;;
14377;SDS011;7272;53.668;9.578;2023-05-07T10:59:49;9.40;;;5.37;;
14377;SDS011;7272;53.668;9.578;2023-05-07T11:03:06;6.10;;;5.47;;
14377;SDS011;7272;53.668;9.578;2023-05-07T11:06:16;5.63;;;5.13;;
14377;SDS011;7272;53.668;9.578;2023-05-07T11:09:25;5.90;;;5.40;;
14377;SDS011;7272;53.668;9.578;2023-05-07T11:16:48;6.47;;;6.00;;
14377;SDS011;7272;53.668;9.578;2023-05-07T11:19:57;6.70;;;6.20;;
14377;SDS011;7272;53.668;9.578;2023-05-07T11:27:08;6.77;;;6.17;;
14377;SDS011;7272;53.668;9.578;2023-05-07T11:30:10;5.90;;;5.50;;
14377;SDS011;7272;53.668;9.578;2023-05-07T11:33:18;5.90;;;5.40;;
14377;SDS011;7272;53.668;9.578;2023-05-07T11:36:24;6.00;;;5.57;;
14377;SDS011;7272;53.668;9.578;2023-05-07T11:39:37;5.53;;;5.13;;
14377;SDS011;7272;53.668;9.578;2023-05-07T11:42:43;6.00;;;5.40;;
14377;SDS011;7272;53.668;9.578;2023-05-07T11:45:44;5.80;;;5.40;;
14377;SDS011;7272;53.668;9.578;2023-05-07T11:48:48;5.40;;;5.00;;
14377;SDS011;7272;53.668;9.578;2023-05-07T11:51:51;5.70;;;5.30;;
14377;SDS011;7272;53.668;9.578;2023-05-07T11:54:54;5.07;;;4.77;;
14377;SDS011;7272;53.668;9.578;2023-05-07T11:58:05;5.03;;;4.70;;
14377;SDS011;7272;53.668;9.578;2023-05-07T12:01:13;5.17;;;4.77;;
14377;SDS011;7272;53.668;9.578;2023-05-07T12:04:21;4.90;;;4.50;;
14377;SDS011;7272;53.668;9.578;2023-05-07T12:07:24;5.20;;;4.73;;
14377;SDS011;7272;53.668;9.578;2023-05-07T12:10:26;4.80;;;4.40;;
14377;SDS011;7272;53.668;9.578;2023-05-07T12:13:33;6.93;;;5.30;;
14377;SDS011;7272;53.668;9.578;2023-05-07T12:16:38;5.10;;;4.70;;
14377;SDS011;7272;53.668;9.578;2023-05-07T12:19:41;5.07;;;4.78;;
14377;SDS011;7272;53.668;9.578;2023-05-07T12:22:46;4.60;;;4.30;;
14377;SDS011;7272;53.668;9.578;2023-05-07T12:25:52;5.50;;;5.10;;
14377;SDS011;7272;53.668;9.578;2023-05-07T12:28:55;5.30;;;5.00;;
14377;SDS011;7272;53.668;9.578;2023-05-07T12:31:59;5.73;;;5.23;;
14377;SDS011;7272;53.668;9.578;2023-05-07T12:35:03;4.83;;;4.53;;
14377;SDS011;7272;53.668;9.578;2023-05-07T12:38:07;5.47;;;4.77;;
14377;SDS011;7272;53.668;9.578;2023-05-07T12:41:11;5.10;;;4.70;;
14377;SDS011;7272;53.668;9.578;2023-05-07T12:44:15;4.50;;;4.20;;
14377;SDS011;7272;53.668;9.578;2023-05-07T12:47:22;4.67;;;4.37;;
14377;SDS011;7272;53.668;9.578;2023-05-07T12:50:23;4.87;;;4.57;;
14377;SDS011;7272;53.668;9.578;2023-05-07T12:53:32;5.40;;;5.00;;
14377;SDS011;7272;53.668;9.578;2023-05-07T12:56:35;4.50;;;4.20;;
14377;SDS011;7272;53.668;9.578;2023-05-07T12:59:40;4.87;;;4.57;;
14377;SDS011;7272;53.668;9.578;2023-05-07T13:02:42;4.27;;;3.97;;
14377;SDS011;7272;53.668;9.578;2023-05-07T13:05:44;4.50;;;4.20;;
14377;SDS011;7272;53.668;9.578;2023-05-07T13:08:46;4.30;;;4.00;;
14377;SDS011;7272;53.668;9.578;2023-05-07T13:11:47;4.17;;;3.87;;
14377;SDS011;7272;53.668;9.578;2023-05-07T13:14:52;4.20;;;3.80;;
14377;SDS011;7272;53.668;9.578;2023-05-07T13:17:53;3.73;;;3.20;;
14377;SDS011;7272;53.668;9.578;2023-05-07T13:20:55;3.43;;;3.23;;
14377;SDS011;7272;53.668;9.578;2023-05-07T13:23:56;4.10;;;3.80;;
14377;SDS011;7272;53.668;9.578;2023-05-07T13:26:58;3.90;;;3.60;;
14377;SDS011;7272;53.668;9.578;2023-05-07T13:30:00;4.10;;;3.80;;
14377;SDS011;7272;53.668;9.578;2023-05-07T13:33:01;3.67;;;3.33;;
14377;SDS011;7272;53.668;9.578;2023-05-07T13:36:03;3.50;;;3.30;;
14377;SDS011;7272;53.668;9.578;2023-05-07T13:39:05;3.37;;;3.17;;
14377;SDS011;7272;53.668;9.578;2023-05-07T13:42:07;3.10;;;2.90;;
14377;SDS011;7272;53.668;9.578;2023-05-07T13:45:10;3.20;;;2.90;;
14377;SDS011;7272;53.668;9.578;2023-05-07T13:48:14;3.30;;;3.10;;
14377;SDS011;7272;53.668;9.578;2023-05-07T13:51:15;3.00;;;2.80;;
14377;SDS011;7272;53.668;9.578;2023-05-07T13:54:17;3.33;;;3.03;;
14377;SDS011;7272;53.668;9.578;2023-05-07T13:57:18;2.83;;;2.60;;
14377;SDS011;7272;53.668;9.578;2023-05-07T14:00:20;3.10;;;2.80;;
14377;SDS011;7272;53.668;9.578;2023-05-07T14:03:21;2.97;;;2.77;;
14377;SDS011;7272;53.668;9.578;2023-05-07T14:06:22;3.10;;;2.80;;
14377;SDS011;7272;53.668;9.578;2023-05-07T14:09:24;2.90;;;2.70;;
14377;SDS011;7272;53.668;9.578;2023-05-07T14:12:25;2.90;;;2.70;;
14377;SDS011;7272;53.668;9.578;2023-05-07T14:15:27;2.70;;;2.50;;
14377;SDS011;7272;53.668;9.578;2023-05-07T14:18:28;3.20;;;2.70;;
14377;SDS011;7272;53.668;9.578;2023-05-07T14:21:31;3.40;;;3.10;;
14377;SDS011;7272;53.668;9.578;2023-05-07T14:24:32;2.88;;;2.67;;
14377;SDS011;7272;53.668;9.578;2023-05-07T14:27:33;2.80;;;2.60;;
14377;SDS011;7272;53.668;9.578;2023-05-07T14:30:35;2.70;;;2.50;;
14377;SDS011;7272;53.668;9.578;2023-05-07T14:33:36;2.43;;;2.30;;
14377;SDS011;7272;53.668;9.578;2023-05-07T14:36:38;2.70;;;2.50;;
14377;SDS011;7272;53.668;9.578;2023-05-07T14:39:39;2.70;;;2.50;;
14377;SDS011;7272;53.668;9.578;2023-05-07T14:42:40;3.17;;;2.60;;
14377;SDS011;7272;53.668;9.578;2023-05-07T14:45:42;2.37;;;2.20;;
14377;SDS011;7272;53.668;9.578;2023-05-07T14:48:43;2.50;;;2.33;;
14377;SDS011;7272;53.668;9.578;2023-05-07T14:51:46;2.72;;;2.53;;
14377;SDS011;7272;53.668;9.578;2023-05-07T14:54:47;3.05;;;2.75;;
14377;SDS011;7272;53.668;9.578;2023-05-07T14:57:48;2.60;;;2.40;;
14377;SDS011;7272;53.668;9.578;2023-05-07T15:00:50;2.40;;;2.20;;
14377;SDS011;7272;53.668;9.578;2023-05-07T15:03:52;2.40;;;2.30;;
14377;SDS011;7272;53.668;9.578;2023-05-07T15:06:53;2.27;;;2.17;;
14377;SDS011;7272;53.668;9.578;2023-05-07T15:09:54;2.10;;;2.00;;
14377;SDS011;7272;53.668;9.578;2023-05-07T15:12:56;2.80;;;2.20;;
14377;SDS011;7272;53.668;9.578;2023-05-07T15:15:58;2.37;;;2.17;;
14377;SDS011;7272;53.668;9.578;2023-05-07T15:18:59;2.45;;;2.25;;
14377;SDS011;7272;53.668;9.578;2023-05-07T15:22:00;2.13;;;1.93;;
14377;SDS011;7272;53.668;9.578;2023-05-07T15:25:02;2.23;;;2.10;;
14377;SDS011;7272;53.668;9.578;2023-05-07T15:28:04;3.40;;;2.20;;
14377;SDS011;7272;53.668;9.578;2023-05-07T15:31:06;2.00;;;1.90;;
14377;SDS011;7272;53.668;9.578;2023-05-07T15:34:08;2.27;;;2.07;;
14377;SDS011;7272;53.668;9.578;2023-05-07T15:37:09;2.13;;;2.03;;
14377;SDS011;7272;53.668;9.578;2023-05-07T15:40:11;2.40;;;2.20;;
14377;SDS011;7272;53.668;9.578;2023-05-07T15:43:13;2.30;;;2.20;;
14377;SDS011;7272;53.668;9.578;2023-05-07T15:46:17;2.20;;;2.07;;
14377;SDS011;7272;53.668;9.578;2023-05-07T15:49:20;2.40;;;1.97;;
14377;SDS011;7272;53.668;9.578;2023-05-07T15:52:22;1.90;;;1.80;;
14377;SDS011;7272;53.668;9.578;2023-05-07T15:55:23;2.03;;;1.93;;
14377;SDS011;7272;53.668;9.578;2023-05-07T15:58:24;2.20;;;2.10;;
14377;SDS011;7272;53.668;9.578;2023-05-07T16:01:27;3.10;;;2.50;;
14377;SDS011;7272;53.668;9.578;2023-05-07T16:04:28;2.33;;;2.00;;
14377;SDS011;7272;53.668;9.578;2023-05-07T16:07:30;3.03;;;2.20;;
14377;SDS011;7272;53.668;9.578;2023-05-07T16:10:31;2.23;;;1.87;;
14377;SDS011;7272;53.668;9.578;2023-05-07T16:13:33;1.80;;;1.70;;
14377;SDS011;7272;53.668;9.578;2023-05-07T16:16:36;2.00;;;1.90;;
14377;SDS011;7272;53.668;9.578;2023-05-07T16:19:39;2.20;;;2.10;;
14377;SDS011;7272;53.668;9.578;2023-05-07T16:22:41;2.30;;;2.10;;
14377;SDS011;7272;53.668;9.578;2023-05-07T16:25:42;2.05;;;1.95;;
14377;SDS011;7272;53.668;9.578;2023-05-07T16:28:44;2.10;;;2.00;;
14377;SDS011;7272;53.668;9.578;2023-05-07T16:31:46;2.00;;;1.90;;
14377;SDS011;7272;53.668;9.578;2023-05-07T16:34:47;2.33;;;2.00;;
14377;SDS011;7272;53.668;9.578;2023-05-07T16:37:48;2.03;;;1.90;;
14377;SDS011;7272;53.668;9.578;2023-05-07T16:40:49;2.67;;;2.00;;
14377;SDS011;7272;53.668;9.578;2023-05-07T16:43:50;2.80;;;2.20;;
14377;SDS011;7272;53.668;9.578;2023-05-07T16:46:53;2.00;;;1.90;;
14377;SDS011;7272;53.668;9.578;2023-05-07T16:49:54;2.27;;;2.10;;
14377;SDS011;7272;53.668;9.578;2023-05-07T16:52:56;2.40;;;2.20;;
14377;SDS011;7272;53.668;9.578;2023-05-07T16:55:57;2.43;;;1.97;;
14377;SDS011;7272;53.668;9.578;2023-05-07T16:58:59;2.13;;;1.93;;
14377;SDS011;7272;53.668;9.578;2023-05-07T17:02:01;2.17;;;2.07;;
14377;SDS011;7272;53.668;9.578;2023-05-07T17:05:03;2.27;;;2.07;;
14377;SDS011;7272;53.668;9.578;2023-05-07T17:08:05;2.10;;;2.00;;
14377;SDS011;7272;53.668;9.578;2023-05-07T17:11:07;2.13;;;1.93;;
14377;SDS011;7272;53.668;9.578;2023-05-07T17:14:08;2.42;;;2.22;;
14377;SDS011;7272;53.668;9.578;2023-05-07T17:17:12;2.22;;;2.03;;
14377;SDS011;7272;53.668;9.578;2023-05-07T17:20:13;2.20;;;2.10;;
14377;SDS011;7272;53.668;9.578;2023-05-07T17:23:14;2.27;;;2.17;;
14377;SDS011;7272;53.668;9.578;2023-05-07T17:26:17;2.30;;;2.10;;
14377;SDS011;7272;53.668;9.578;2023-05-07T17:29:18;2.47;;;2.27;;
14377;SDS011;7272;53.668;9.578;2023-05-07T17:32:21;2.13;;;1.93;;
14377;SDS011;7272;53.668;9.578;2023-05-07T17:35:22;2.20;;;2.10;;
14377;SDS011;7272;53.668;9.578;2023-05-07T17:38:25;2.20;;;2.00;;
14377;SDS011;7272;53.668;9.578;2023-05-07T17:41:26;3.80;;;3.40;;
14377;SDS011;7272;53.668;9.578;2023-05-07T17:44:27;2.40;;;2.20;;
14377;SDS011;7272;53.668;9.578;2023-05-07T17:47:30;2.30;;;2.10;;
14377;SDS011;7272;53.668;9.578;2023-05-07T17:50:32;2.30;;;2.10;;
14377;SDS011;7272;53.668;9.578;2023-05-07T17:53:33;2.13;;;2.00;;
14377;SDS011;7272;53.668;9.578;2023-05-07T17:56:36;3.40;;;2.30;;
14377;SDS011;7272;53.668;9.578;2023-05-07T17:59:37;2.00;;;1.90;;
14377;SDS011;7272;53.668;9.578;2023-05-07T18:02:39;2.67;;;1.93;;
14377;SDS011;7272;53.668;9.578;2023-05-07T18:05:41;2.30;;;2.10;;
14377;SDS011;7272;53.668;9.578;2023-05-07T18:08:42;2.53;;;2.00;;
14377;SDS011;7272;53.668;9.578;2023-05-07T18:11:44;2.20;;;2.10;;
14377;SDS011;7272;53.668;9.578;2023-05-07T18:14:45;3.40;;;2.37;;
14377;SDS011;7272;53.668;9.578;2023-05-07T18:17:48;1.90;;;1.80;;
14377;SDS011;7272;53.668;9.578;2023-05-07T18:20:49;1.90;;;1.80;;
14377;SDS011;7272;53.668;9.578;2023-05-07T18:23:51;2.03;;;1.90;;
14377;SDS011;7272;53.668;9.578;2023-05-07T18:26:52;2.27;;;2.07;;
14377;SDS011;7272;53.668;9.578;2023-05-07T18:29:53;2.30;;;2.10;;
14377;SDS011;7272;53.668;9.578;2023-05-07T18:32:55;2.40;;;2.20;;
14377;SDS011;7272;53.668;9.578;2023-05-07T18:35:57;2.10;;;2.00;;
14377;SDS011;7272;53.668;9.578;2023-05-07T18:38:58;2.20;;;2.00;;
14377;SDS011;7272;53.668;9.578;2023-05-07T18:42:00;2.30;;;2.00;;
14377;SDS011;7272;53.668;9.578;2023-05-07T18:45:04;2.13;;;2.03;;
14377;SDS011;7272;53.668;9.578;2023-05-07T18:48:08;2.07;;;1.83;;